Mabrouk — 9HA4054 — position and weather

sailwx.info

Track history (hours):
 
Tides and Currents Weather Stations Pressure Air Temp Water Temp Dewpoint Dewpoint Depression Visibility Wind Speed Wind Dir Waves Ship Positions

Mabrouk

Last reported at 2018-Feb-11 22:32 UTC. Time now 2018-Feb-26 03:53 UTC.
Position N 36°25' E 014°48'.
Warning: this ship's position is 14 days out of date.

Length 273 m; draft 7.6 m.

Type: Ship. MMSI: 249001000.

Date/timePositionNaut miles runAvg speedWind from/ knotsBaromVisibWave heightAir tempDewpointWater temp
2018-Feb-11 22:32N 36°25' E 014°48'114.7
2018-Feb-11 22:28N 36°25' E 014°46'714.6
2018-Feb-11 22:00N 36°26' E 014°38'714.6
2018-Feb-11 21:30N 36°28' E 014°29'714.3
2018-Feb-11 21:01N 36°30' E 014°21'714.3
2018-Feb-11 20:30N 36°32' E 014°12'714.3
2018-Feb-11 20:00N 36°34' E 014°03'  
2018-Feb-06 00:16N 36°37' E 014°16'312.9
2018-Feb-06 00:00N 36°35' E 014°20'612.8
2018-Feb-05 23:30N 36°31' E 014°26'612.6
2018-Feb-05 23:00N 36°29' E 014°33'712.5
2018-Feb-05 22:26N 36°28' E 014°42'  
Track history (hours):
 
Tides and Currents Weather Stations Pressure Air Temp Water Temp Dewpoint Dewpoint Depression Visibility Wind Speed Wind Dir Waves Ship Positions

Mabrouk

Last reported at 2018-Feb-11 22:32 UTC. Time now 2018-Feb-26 03:53 UTC.
Position N 36°25' E 014°48'.
Warning: this ship's position is 14 days out of date.

Length 273 m; draft 7.6 m.

Type: Ship. MMSI: 249001000.

Date/timePositionNaut miles runAvg speedWind from/ knotsBaromVisibWave heightAir tempDewpointWater temp
2018-Feb-11 22:32N 36°25' E 014°48'114.7
2018-Feb-11 22:28N 36°25' E 014°46'714.6
2018-Feb-11 22:00N 36°26' E 014°38'714.6
2018-Feb-11 21:30N 36°28' E 014°29'714.3
2018-Feb-11 21:01N 36°30' E 014°21'714.3
2018-Feb-11 20:30N 36°32' E 014°12'714.3
2018-Feb-11 20:00N 36°34' E 014°03'  
2018-Feb-06 00:16N 36°37' E 014°16'312.9
2018-Feb-06 00:00N 36°35' E 014°20'612.8
2018-Feb-05 23:30N 36°31' E 014°26'612.6
2018-Feb-05 23:00N 36°29' E 014°33'712.5
2018-Feb-05 22:26N 36°28' E 014°42'  

Dump ship's entire track history